createdAt,value
2023-02-06T00:00:52.436Z,3.30
2023-02-06T00:01:52.594Z,3.70
2023-02-06T00:02:52.411Z,3.40
2023-02-06T00:03:52.606Z,3.50
2023-02-06T00:04:52.425Z,3.80
2023-02-06T00:05:52.596Z,3.70
2023-02-06T00:06:52.369Z,4.20
2023-02-06T00:07:52.447Z,3.20
2023-02-06T00:08:52.493Z,2.90
2023-02-06T00:09:52.528Z,2.70
2023-02-06T00:10:52.415Z,3.60
2023-02-06T00:11:52.273Z,5.30
2023-02-06T00:12:52.473Z,4.00
2023-02-06T00:13:52.226Z,3.60
2023-02-06T00:14:52.425Z,4.10
2023-02-06T00:15:52.312Z,3.90
2023-02-06T00:16:52.424Z,3.90
2023-02-06T00:17:52.248Z,4.00
2023-02-06T00:18:52.369Z,3.40
2023-02-06T00:19:52.234Z,4.50
2023-02-06T00:20:52.419Z,4.00
2023-02-06T00:21:52.254Z,3.10
2023-02-06T00:22:52.305Z,4.40
2023-02-06T00:23:52.308Z,4.00
2023-02-06T00:24:52.545Z,4.70
2023-02-06T00:25:52.285Z,4.40
2023-02-06T00:26:52.303Z,4.20
2023-02-06T00:27:52.233Z,4.10
2023-02-06T00:28:52.283Z,3.80
2023-02-06T00:29:52.256Z,3.80
2023-02-06T00:30:52.211Z,3.50
2023-02-06T00:31:52.337Z,4.30
2023-02-06T00:32:52.109Z,3.00
2023-02-06T00:33:52.302Z,3.00
2023-02-06T00:34:52.090Z,2.60
2023-02-06T00:35:52.218Z,3.20
2023-02-06T00:36:52.291Z,3.00
2023-02-06T00:37:52.270Z,4.00
2023-02-06T00:38:52.039Z,3.50
2023-02-06T00:39:52.179Z,3.30
2023-02-06T00:40:52.067Z,3.60
2023-02-06T00:41:52.138Z,2.50
2023-02-06T00:42:52.300Z,3.70
2023-02-06T00:43:52.252Z,3.20
2023-02-06T00:44:52.099Z,3.40
2023-02-06T00:45:51.914Z,5.70
2023-02-06T00:46:52.080Z,3.90
2023-02-06T00:47:51.990Z,3.30
2023-02-06T00:48:52.122Z,2.80
2023-02-06T00:49:51.970Z,3.80
2023-02-06T00:50:52.102Z,3.30
2023-02-06T00:51:52.022Z,2.90
2023-02-06T00:52:52.040Z,2.60
2023-02-06T00:53:51.980Z,3.00
2023-02-06T00:54:52.010Z,3.70
2023-02-06T00:55:51.948Z,2.70
2023-02-06T00:56:52.121Z,3.00
2023-02-06T00:57:51.921Z,3.30
2023-02-06T00:58:52.112Z,4.80
2023-02-06T00:59:51.940Z,4.40
2023-02-06T01:00:52.005Z,3.30
2023-02-06T01:01:51.906Z,3.20
2023-02-06T01:02:51.889Z,4.10
2023-02-06T01:03:52.079Z,3.90
2023-02-06T01:04:51.738Z,3.30
2023-02-06T01:05:51.930Z,3.50
2023-02-06T01:06:51.736Z,3.90
2023-02-06T01:07:51.935Z,3.00
2023-02-06T01:08:51.837Z,3.20
2023-02-06T01:09:51.876Z,3.00
2023-02-06T01:10:51.738Z,2.80
2023-02-06T01:11:51.866Z,3.50
2023-02-06T01:12:51.796Z,2.70
2023-02-06T01:13:51.875Z,3.10
2023-02-06T01:14:51.846Z,2.70
2023-02-06T01:15:51.862Z,3.50
2023-02-06T01:16:51.793Z,2.90
2023-02-06T01:17:51.976Z,3.40
2023-02-06T01:18:51.770Z,2.90
2023-02-06T01:19:51.641Z,4.20
2023-02-06T01:20:51.794Z,3.20
2023-02-06T01:21:51.786Z,4.10
2023-02-06T01:22:52.155Z,3.80
2023-02-06T01:23:51.602Z,3.80
2023-02-06T01:24:51.755Z,4.20
2023-02-06T01:25:51.833Z,3.10
2023-02-06T01:26:51.965Z,3.50
2023-02-06T01:27:51.742Z,3.20
2023-02-06T01:28:51.697Z,2.90
2023-02-06T01:29:51.553Z,3.70
2023-02-06T01:30:51.771Z,3.40
2023-02-06T01:31:51.602Z,4.10
2023-02-06T01:32:51.642Z,3.10
2023-02-06T01:33:51.660Z,4.50
2023-02-06T01:34:51.652Z,4.70
2023-02-06T01:35:51.631Z,3.70
2023-02-06T01:36:51.424Z,3.30
2023-02-06T01:37:51.590Z,4.40
2023-02-06T01:38:51.502Z,3.10
2023-02-06T01:39:51.541Z,3.80
2023-02-06T01:40:51.533Z,3.40
2023-02-06T01:41:51.581Z,3.20
2023-02-06T01:42:51.492Z,3.70
2023-02-06T01:43:51.644Z,3.20
2023-02-06T01:44:51.431Z,3.20
2023-02-06T01:45:51.592Z,3.80
2023-02-06T01:46:51.657Z,2.90
2023-02-06T01:47:51.521Z,3.50
2023-02-06T01:48:51.458Z,2.40
2023-02-06T01:49:51.502Z,3.10
2023-02-06T01:50:51.493Z,4.10
2023-02-06T01:51:51.592Z,2.40
2023-02-06T01:52:51.463Z,5.50
2023-02-06T01:53:51.302Z,3.50
2023-02-06T01:54:51.468Z,3.90
2023-02-06T01:55:51.277Z,3.80
2023-02-06T01:56:51.526Z,3.90
2023-02-06T01:57:51.341Z,2.90
2023-02-06T01:58:51.622Z,3.60
2023-02-06T01:59:51.233Z,3.50
2023-02-06T02:00:51.502Z,2.90
2023-02-06T02:01:51.313Z,3.70
2023-02-06T02:02:51.423Z,3.10
2023-02-06T02:03:51.295Z,3.50
2023-02-06T02:04:51.480Z,4.00
2023-02-06T02:05:51.294Z,3.70
2023-02-06T02:06:51.366Z,3.40
2023-02-06T02:07:51.382Z,2.70
2023-02-06T02:08:51.440Z,3.00
2023-02-06T02:09:51.283Z,3.70
2023-02-06T02:10:51.122Z,3.70
2023-02-06T02:11:51.256Z,3.40
2023-02-06T02:12:51.105Z,3.00
2023-02-06T02:13:51.322Z,3.30
2023-02-06T02:14:51.076Z,3.50
2023-02-06T02:15:51.475Z,3.60
2023-02-06T02:16:51.099Z,4.50
2023-02-06T02:17:51.250Z,3.40
2023-02-06T02:18:51.147Z,3.20
2023-02-06T02:19:51.279Z,3.70
2023-02-06T02:20:51.281Z,4.00
2023-02-06T02:21:51.218Z,4.00
2023-02-06T02:22:51.130Z,4.20
2023-02-06T02:23:51.453Z,3.90
2023-02-06T02:24:51.128Z,3.20
2023-02-06T02:25:51.266Z,4.00
2023-02-06T02:26:51.184Z,3.30
2023-02-06T02:27:51.192Z,2.90
2023-02-06T02:28:51.187Z,3.40
2023-02-06T02:29:50.930Z,3.00
2023-02-06T02:30:51.093Z,3.20
2023-02-06T02:31:50.965Z,3.80
2023-02-06T02:32:51.111Z,3.20
2023-02-06T02:33:50.970Z,3.20
2023-02-06T02:34:51.150Z,2.80
2023-02-06T02:35:50.938Z,3.30
2023-02-06T02:36:51.020Z,3.80
2023-02-06T02:37:50.971Z,3.00
2023-02-06T02:38:51.140Z,3.90
2023-02-06T02:39:51.061Z,3.20
2023-02-06T02:40:51.071Z,3.20
2023-02-06T02:41:50.983Z,3.20
2023-02-06T02:42:51.031Z,3.90
2023-02-06T02:43:50.982Z,2.60
2023-02-06T02:44:50.878Z,2.70
2023-02-06T02:45:51.082Z,3.80
2023-02-06T02:46:50.821Z,3.70
2023-02-06T02:47:50.942Z,3.50
2023-02-06T02:48:50.858Z,3.50
2023-02-06T02:49:50.957Z,4.40
2023-02-06T02:50:50.777Z,3.40
2023-02-06T02:51:51.045Z,3.20
2023-02-06T02:52:50.837Z,3.40
2023-02-06T02:53:51.155Z,3.10
2023-02-06T02:54:51.027Z,3.00
2023-02-06T02:55:50.947Z,3.40
2023-02-06T02:56:50.774Z,3.40
2023-02-06T02:57:50.837Z,3.20
2023-02-06T02:58:50.932Z,3.20
2023-02-06T02:59:50.884Z,3.30
2023-02-06T03:00:50.955Z,3.90
2023-02-06T03:01:50.817Z,4.00
2023-02-06T03:02:50.809Z,3.40
2023-02-06T03:03:50.623Z,3.60
2023-02-06T03:04:50.825Z,3.80
2023-02-06T03:05:50.696Z,5.60
2023-02-06T03:06:50.786Z,3.60
2023-02-06T03:07:50.664Z,4.90
2023-02-06T03:08:50.733Z,3.40
2023-02-06T03:09:50.694Z,3.70
2023-02-06T03:10:50.752Z,4.10
2023-02-06T03:11:50.676Z,3.30
2023-02-06T03:12:50.953Z,4.10
2023-02-06T03:13:50.656Z,3.50
2023-02-06T03:14:50.783Z,4.00
2023-02-06T03:15:50.642Z,3.20
2023-02-06T03:16:50.802Z,4.20
2023-02-06T03:17:50.625Z,3.80
2023-02-06T03:18:50.493Z,3.50
2023-02-06T03:19:50.634Z,3.40
2023-02-06T03:20:50.455Z,3.30
2023-02-06T03:21:50.673Z,3.40
2023-02-06T03:22:50.447Z,3.20
2023-02-06T03:23:50.794Z,3.00
2023-02-06T03:24:50.477Z,2.90
2023-02-06T03:25:50.615Z,3.20
2023-02-06T03:26:50.496Z,3.60
2023-02-06T03:27:50.860Z,3.10
2023-02-06T03:28:50.445Z,3.30
2023-02-06T03:29:50.597Z,3.50
2023-02-06T03:30:50.536Z,3.60
2023-02-06T03:31:50.624Z,3.70
2023-02-06T03:32:50.576Z,4.20
2023-02-06T03:33:50.534Z,3.70
2023-02-06T03:34:50.486Z,3.10
2023-02-06T03:35:50.294Z,3.50
2023-02-06T03:36:50.443Z,3.70
2023-02-06T03:37:50.398Z,3.30
2023-02-06T03:38:50.503Z,4.60
2023-02-06T03:39:50.340Z,3.30
2023-02-06T03:40:50.404Z,3.00
2023-02-06T03:41:50.301Z,3.40
2023-02-06T03:42:50.545Z,3.60
2023-02-06T03:43:50.341Z,4.50
2023-02-06T03:44:50.455Z,4.00
2023-02-06T03:45:50.275Z,3.50
2023-02-06T03:46:50.416Z,3.80
2023-02-06T03:47:50.305Z,3.40
2023-02-06T03:48:50.503Z,3.00
2023-02-06T03:49:50.315Z,3.70
2023-02-06T03:50:50.389Z,3.70
2023-02-06T03:51:50.323Z,3.30
2023-02-06T03:52:50.376Z,4.70
2023-02-06T03:53:50.403Z,3.60
2023-02-06T03:54:50.165Z,3.70
2023-02-06T03:55:50.296Z,3.40
2023-02-06T03:56:50.167Z,3.50
2023-02-06T03:57:50.391Z,2.80
2023-02-06T03:58:50.219Z,3.20
2023-02-06T03:59:50.377Z,3.00
2023-02-06T04:00:50.251Z,2.90
2023-02-06T04:01:50.350Z,3.30
2023-02-06T04:02:50.128Z,3.20
2023-02-06T04:03:50.327Z,2.70
2023-02-06T04:04:50.148Z,3.10
2023-02-06T04:05:50.250Z,4.30
2023-02-06T04:06:50.129Z,2.90
2023-02-06T04:07:50.200Z,3.40
2023-02-06T04:08:50.139Z,2.70
2023-02-06T04:09:50.208Z,3.40
2023-02-06T04:10:50.160Z,3.50
2023-02-06T04:11:50.140Z,3.10
2023-02-06T04:12:50.129Z,2.90
2023-02-06T04:13:49.969Z,3.00
2023-02-06T04:14:50.132Z,2.50
2023-02-06T04:15:50.109Z,3.10
2023-02-06T04:16:50.151Z,2.80
2023-02-06T04:17:59.870Z,3.90
2023-02-06T04:18:50.121Z,2.60
2023-02-06T04:19:49.979Z,2.90
2023-02-06T04:20:50.150Z,3.30
2023-02-06T04:21:50.024Z,2.90
2023-02-06T04:22:50.050Z,2.70
2023-02-06T04:23:50.216Z,2.50
2023-02-06T04:24:50.070Z,2.90
2023-02-06T04:25:50.219Z,4.30
2023-02-06T04:26:49.840Z,4.50
2023-02-06T04:27:50.086Z,4.00
2023-02-06T04:28:49.821Z,4.30
2023-02-06T04:29:49.960Z,3.10
2023-02-06T04:30:50.065Z,3.70
2023-02-06T04:31:50.010Z,2.90
2023-02-06T04:32:49.814Z,2.40
2023-02-06T04:33:49.960Z,4.10
2023-02-06T04:34:49.783Z,2.90
2023-02-06T04:35:50.040Z,3.00
2023-02-06T04:36:49.862Z,3.40
2023-02-06T04:37:50.040Z,2.90
2023-02-06T04:38:49.843Z,3.00
2023-02-06T04:39:49.879Z,3.40
2023-02-06T04:40:49.811Z,2.80
2023-02-06T04:41:49.826Z,2.80
2023-02-06T04:42:49.884Z,2.60
2023-02-06T04:43:49.648Z,2.30
2023-02-06T04:44:49.839Z,2.90
2023-02-06T04:45:49.682Z,2.60
2023-02-06T04:46:49.811Z,3.10
2023-02-06T04:47:49.819Z,3.00
2023-02-06T04:48:49.789Z,2.90
2023-02-06T04:49:49.892Z,2.70
2023-02-06T04:50:49.790Z,2.80
2023-02-06T04:51:49.659Z,2.70
2023-02-06T04:52:49.919Z,3.60
2023-02-06T04:53:49.749Z,3.30
2023-02-06T04:54:49.774Z,2.90
2023-02-06T04:55:49.674Z,3.30
2023-02-06T04:56:49.503Z,3.10
2023-02-06T04:57:49.766Z,2.70
2023-02-06T04:58:49.499Z,3.50
2023-02-06T04:59:49.750Z,3.50
2023-02-06T05:00:49.490Z,3.10
2023-02-06T05:01:49.701Z,3.60
2023-02-06T05:02:49.578Z,2.50
2023-02-06T05:03:49.687Z,3.20
2023-02-06T05:04:49.487Z,3.40
2023-02-06T05:05:49.672Z,4.50
2023-02-06T05:06:49.498Z,4.90
2023-02-06T05:07:49.666Z,3.10
2023-02-06T05:08:49.477Z,3.60
2023-02-06T05:09:49.596Z,3.00
2023-02-06T05:10:49.590Z,3.00
2023-02-06T05:11:49.615Z,3.10
2023-02-06T05:12:49.516Z,3.30
2023-02-06T05:13:49.394Z,3.10
2023-02-06T05:14:49.504Z,3.10
2023-02-06T05:15:49.334Z,3.10
2023-02-06T05:16:49.494Z,2.90
2023-02-06T05:17:49.344Z,3.30
2023-02-06T05:18:49.683Z,3.50
2023-02-06T05:19:49.326Z,3.30
2023-02-06T05:20:49.523Z,3.40
2023-02-06T05:21:49.483Z,3.40
2023-02-06T05:22:49.455Z,4.00
2023-02-06T05:23:49.394Z,3.50
2023-02-06T05:24:49.525Z,4.00
2023-02-06T05:25:49.552Z,3.70
2023-02-06T05:26:49.431Z,2.40
2023-02-06T05:27:49.375Z,3.30
2023-02-06T05:28:49.462Z,2.60
2023-02-06T05:29:49.444Z,3.30
2023-02-06T05:30:49.293Z,5.60
2023-02-06T05:31:49.408Z,4.60
2023-02-06T05:32:49.193Z,4.70
2023-02-06T05:33:52.094Z,5.00
2023-02-06T05:34:49.292Z,5.20
2023-02-06T05:35:49.363Z,5.10
2023-02-06T05:36:49.236Z,4.70
2023-02-06T05:37:49.413Z,5.70
2023-02-06T05:38:49.158Z,6.00
2023-02-06T05:39:49.547Z,5.90
2023-02-06T05:40:49.385Z,5.90
2023-02-06T05:41:50.308Z,5.70
2023-02-06T05:42:49.184Z,5.10
2023-02-06T05:43:49.254Z,5.10
2023-02-06T05:44:49.193Z,4.80
2023-02-06T05:45:49.216Z,4.20
2023-02-06T05:46:49.139Z,3.20
2023-02-06T05:47:48.996Z,4.20
2023-02-06T05:48:49.196Z,3.80
2023-02-06T05:49:49.235Z,3.50
2023-02-06T05:50:49.285Z,3.40
2023-02-06T05:51:49.014Z,3.30
2023-02-06T05:52:49.234Z,4.00
2023-02-06T05:53:49.058Z,3.30
2023-02-06T05:54:49.136Z,3.80
2023-02-06T05:55:49.072Z,4.00
2023-02-06T05:56:49.339Z,3.30
2023-02-06T05:57:49.104Z,2.90
2023-02-06T05:58:49.258Z,3.00
2023-02-06T05:59:49.058Z,2.60
2023-02-06T06:00:49.068Z,3.30
2023-02-06T06:01:49.591Z,3.40
2023-02-06T06:02:48.838Z,3.10
2023-02-06T06:03:49.052Z,2.60
2023-02-06T06:04:49.059Z,3.30
2023-02-06T06:05:49.069Z,3.30
2023-02-06T06:06:48.897Z,3.50
2023-02-06T06:07:50.087Z,3.50
2023-02-06T06:08:48.859Z,3.60
2023-02-06T06:09:49.278Z,3.30
2023-02-06T06:10:48.891Z,2.90
2023-02-06T06:11:49.220Z,3.70
2023-02-06T06:12:48.979Z,3.40
2023-02-06T06:13:48.978Z,3.50
2023-02-06T06:14:48.921Z,3.30
2023-02-06T06:15:49.023Z,3.30
2023-02-06T06:16:48.835Z,3.10
2023-02-06T06:17:48.942Z,3.10
2023-02-06T06:18:48.929Z,3.50
2023-02-06T06:19:48.761Z,3.40
2023-02-06T06:20:48.900Z,3.40
2023-02-06T06:21:48.733Z,3.20
2023-02-06T06:22:48.860Z,3.70
2023-02-06T06:23:48.741Z,6.00
2023-02-06T06:24:49.129Z,5.30
2023-02-06T06:25:48.704Z,5.20
2023-02-06T06:26:49.022Z,4.00
2023-02-06T06:27:48.775Z,3.40
2023-02-06T06:28:48.844Z,3.10
2023-02-06T06:29:48.769Z,3.20
2023-02-06T06:30:48.851Z,3.10
2023-02-06T06:31:48.706Z,3.30
2023-02-06T06:32:48.890Z,3.40
2023-02-06T06:33:48.690Z,3.10
2023-02-06T06:34:48.774Z,3.10
2023-02-06T06:35:48.749Z,3.30
2023-02-06T06:36:48.759Z,3.60
2023-02-06T06:37:48.744Z,3.90
2023-02-06T06:38:48.608Z,3.00
2023-02-06T06:39:48.740Z,3.60
2023-02-06T06:40:48.638Z,3.20
2023-02-06T06:41:48.926Z,3.00
2023-02-06T06:42:48.560Z,2.60
2023-02-06T06:43:51.275Z,3.80
2023-02-06T06:44:48.779Z,3.30
2023-02-06T06:45:48.762Z,3.30
2023-02-06T06:46:48.608Z,3.10
2023-02-06T06:47:48.897Z,3.70
2023-02-06T06:48:48.578Z,3.60
2023-02-06T06:49:48.608Z,3.20
2023-02-06T06:50:48.598Z,3.90
2023-02-06T06:51:48.735Z,3.20
2023-02-06T06:52:48.630Z,3.70
2023-02-06T06:53:48.653Z,3.50
2023-02-06T06:54:49.356Z,4.00
2023-02-06T06:55:48.409Z,5.10
2023-02-06T06:56:49.541Z,3.20
2023-02-06T06:57:48.413Z,3.70
2023-02-06T06:58:47.780Z,4.10
2023-02-06T06:59:48.418Z,3.10
2023-02-06T07:00:48.626Z,3.60
2023-02-06T07:01:48.379Z,2.90
2023-02-06T07:02:48.698Z,4.10
2023-02-06T07:03:48.548Z,3.20
2023-02-06T07:04:48.498Z,3.70
2023-02-06T07:05:48.370Z,4.70
2023-02-06T07:06:48.461Z,3.90
2023-02-06T07:07:48.469Z,4.10
2023-02-06T07:08:48.450Z,4.20
2023-02-06T07:09:48.424Z,4.00
2023-02-06T07:10:48.232Z,3.60
2023-02-06T07:11:48.389Z,3.90
2023-02-06T07:12:48.212Z,5.40
2023-02-06T07:13:48.486Z,5.20
2023-02-06T07:14:48.273Z,4.00
2023-02-06T07:15:48.348Z,3.20
2023-02-06T07:16:48.229Z,3.20
2023-02-06T07:17:48.398Z,4.40
2023-02-06T07:18:48.270Z,4.00
2023-02-06T07:19:48.439Z,2.20
2023-02-06T07:20:48.261Z,4.00
2023-02-06T07:21:48.309Z,2.70
2023-02-06T07:22:48.226Z,1.60
2023-02-06T07:23:49.325Z,2.20
2023-02-06T07:24:48.336Z,3.10
2023-02-06T07:25:48.289Z,2.90
2023-02-06T07:26:48.333Z,2.80
2023-02-06T07:27:48.237Z,2.30
2023-02-06T07:28:48.230Z,2.40
2023-02-06T07:29:48.127Z,2.30
2023-02-06T07:30:48.282Z,2.00
2023-02-06T07:31:48.214Z,2.70
2023-02-06T07:32:48.211Z,2.40
2023-02-06T07:33:48.109Z,2.20
2023-02-06T07:34:48.248Z,2.60
2023-02-06T07:35:48.110Z,3.00
2023-02-06T07:36:48.200Z,2.40
2023-02-06T07:37:48.080Z,3.90
2023-02-06T07:38:48.368Z,2.10
2023-02-06T07:39:48.070Z,2.60
2023-02-06T07:40:48.184Z,2.90
2023-02-06T07:41:48.059Z,2.60
2023-02-06T07:42:48.111Z,2.70
2023-02-06T07:43:48.075Z,1.80
2023-02-06T07:44:48.090Z,2.70
2023-02-06T07:45:48.161Z,2.50
2023-02-06T07:46:47.991Z,3.20
2023-02-06T07:47:48.081Z,3.70
2023-02-06T07:48:47.942Z,2.80
2023-02-06T07:49:48.048Z,2.70
2023-02-06T07:50:47.930Z,2.30
2023-02-06T07:51:48.109Z,2.20
2023-02-06T07:52:47.919Z,2.80
2023-02-06T07:53:47.950Z,2.40
2023-02-06T07:54:47.931Z,2.50
2023-02-06T07:55:48.016Z,2.10
2023-02-06T07:56:47.902Z,2.10
2023-02-06T07:57:48.019Z,1.60
2023-02-06T07:58:47.889Z,2.00
2023-02-06T07:59:47.802Z,2.20
2023-02-06T08:00:48.073Z,2.70
2023-02-06T08:01:47.770Z,2.30
2023-02-06T08:02:47.932Z,2.30
2023-02-06T08:03:47.809Z,2.80
2023-02-06T08:04:47.985Z,2.70
2023-02-06T08:05:47.733Z,2.80
2023-02-06T08:06:47.859Z,2.80
2023-02-06T08:07:47.769Z,2.20
2023-02-06T08:08:47.899Z,2.70
2023-02-06T08:09:47.829Z,1.80
2023-02-06T08:10:47.800Z,3.00
2023-02-06T08:11:47.774Z,2.50
2023-02-06T08:12:47.859Z,2.40
2023-02-06T08:13:47.811Z,2.40
2023-02-06T08:14:47.669Z,2.60
2023-02-06T08:15:47.729Z,2.90
2023-02-06T08:16:47.669Z,2.90
2023-02-06T08:17:47.758Z,2.70
2023-02-06T08:18:47.829Z,2.40
2023-02-06T08:19:47.718Z,2.70
2023-02-06T08:20:47.625Z,2.00
2023-02-06T08:21:47.721Z,2.80
2023-02-06T08:22:47.604Z,2.90
2023-02-06T08:23:47.705Z,1.80
2023-02-06T08:24:47.657Z,2.30
2023-02-06T08:25:47.717Z,2.70
2023-02-06T08:26:47.609Z,2.30
2023-02-06T08:27:47.804Z,2.00
2023-02-06T08:28:47.603Z,2.40
2023-02-06T08:29:47.682Z,2.40
2023-02-06T08:30:47.813Z,2.00
2023-02-06T08:31:47.496Z,2.50
2023-02-06T08:32:47.680Z,2.50
2023-02-06T08:33:47.397Z,2.70
2023-02-06T08:34:47.619Z,2.40
2023-02-06T08:35:47.560Z,2.70
2023-02-06T08:36:48.641Z,2.40
2023-02-06T08:37:47.460Z,2.50
2023-02-06T08:38:47.636Z,2.70
2023-02-06T08:39:47.514Z,2.80
2023-02-06T08:40:47.580Z,1.80
2023-02-06T08:41:47.499Z,2.60
2023-02-06T08:42:47.721Z,2.20
2023-02-06T08:43:47.589Z,2.60
2023-02-06T08:44:47.520Z,2.40
2023-02-06T08:45:47.473Z,2.40
2023-02-06T08:46:47.320Z,2.60
2023-02-06T08:47:47.414Z,2.40
2023-02-06T08:48:47.243Z,2.40
2023-02-06T08:49:47.459Z,2.90
2023-02-06T08:50:47.279Z,2.20
2023-02-06T08:51:47.689Z,2.70
2023-02-06T08:52:47.303Z,2.20
2023-02-06T08:53:47.442Z,6.30
2023-02-06T08:54:47.260Z,2.60
2023-02-06T08:55:47.402Z,4.50
2023-02-06T08:56:47.438Z,3.30
2023-02-06T08:57:47.389Z,2.10
2023-02-06T08:58:47.318Z,3.20
2023-02-06T08:59:47.351Z,2.60
2023-02-06T09:00:47.253Z,1.80
2023-02-06T09:01:47.260Z,2.40
2023-02-06T09:02:47.499Z,2.10
2023-02-06T09:03:47.099Z,3.00
2023-02-06T09:04:47.269Z,2.50
2023-02-06T09:05:47.278Z,2.20
2023-02-06T09:06:47.268Z,2.20
2023-02-06T09:07:47.218Z,2.80
2023-02-06T09:08:47.480Z,2.20
2023-02-06T09:09:47.160Z,2.60
2023-02-06T09:10:47.280Z,2.20
2023-02-06T09:11:47.057Z,2.70
2023-02-06T09:12:47.323Z,3.10
2023-02-06T09:13:49.102Z,2.60
2023-02-06T09:14:47.299Z,2.00
2023-02-06T09:15:47.113Z,2.30
2023-02-06T09:16:47.237Z,2.00
2023-02-06T09:17:47.127Z,2.60
2023-02-06T09:18:47.065Z,2.60
2023-02-06T09:19:47.181Z,2.10
2023-02-06T09:20:46.959Z,3.40
2023-02-06T09:21:47.247Z,3.30
2023-02-06T09:22:47.010Z,2.00
2023-02-06T09:23:47.345Z,3.10
2023-02-06T09:24:46.956Z,2.20
2023-02-06T09:25:47.165Z,2.10
2023-02-06T09:26:59.143Z,2.20
2023-02-06T09:27:47.061Z,2.40
2023-02-06T09:28:47.004Z,2.80
2023-02-06T09:29:47.044Z,2.60
2023-02-06T09:30:47.067Z,2.20
2023-02-06T09:31:47.061Z,2.70
2023-02-06T09:32:46.974Z,2.60
2023-02-06T09:33:46.796Z,2.10
2023-02-06T09:34:48.373Z,2.90
2023-02-06T09:35:46.813Z,2.80
2023-02-06T09:36:46.915Z,2.10
2023-02-06T09:37:46.823Z,2.10
2023-02-06T09:38:47.077Z,1.40
2023-02-06T09:39:46.882Z,2.00
2023-02-06T09:40:46.922Z,2.30
2023-02-06T09:41:46.781Z,2.30
2023-02-06T09:42:46.973Z,2.00
2023-02-06T09:43:46.974Z,2.70
2023-02-06T09:44:47.033Z,1.90
2023-02-06T09:45:46.965Z,2.20
2023-02-06T09:46:46.894Z,2.20
2023-02-06T09:47:47.597Z,2.80
2023-02-06T09:48:46.656Z,2.60
2023-02-06T09:49:46.947Z,2.10
2023-02-06T09:50:47.292Z,2.40
2023-02-06T09:51:46.812Z,2.10
2023-02-06T09:52:46.630Z,2.30
2023-02-06T09:53:46.921Z,2.70
2023-02-06T09:54:46.782Z,2.90
2023-02-06T09:55:46.741Z,2.20
2023-02-06T09:56:46.648Z,2.30
2023-02-06T09:57:46.923Z,2.00
2023-02-06T09:58:46.622Z,2.90
2023-02-06T09:59:46.952Z,2.40
2023-02-06T10:00:46.756Z,2.40
2023-02-06T10:01:47.072Z,1.90
2023-02-06T10:02:46.861Z,2.20
2023-02-06T10:03:46.933Z,1.80
2023-02-06T10:04:46.866Z,2.30
2023-02-06T10:05:46.793Z,2.00
2023-02-06T10:06:46.785Z,1.90
2023-02-06T10:07:46.552Z,2.50
2023-02-06T10:08:46.666Z,2.60
2023-02-06T10:09:46.703Z,2.50
2023-02-06T10:10:46.735Z,2.00
2023-02-06T10:11:46.748Z,2.40
2023-02-06T10:12:46.739Z,2.80
2023-02-06T10:13:46.953Z,2.40
2023-02-06T10:14:46.707Z,2.10
2023-02-06T10:15:46.585Z,2.40
2023-02-06T10:16:46.654Z,2.10
2023-02-06T10:17:46.432Z,2.30
2023-02-06T10:18:46.531Z,2.50
2023-02-06T10:19:46.556Z,2.70
2023-02-06T10:20:46.482Z,2.70
2023-02-06T10:21:46.712Z,2.70
2023-02-06T10:22:46.391Z,3.10
2023-02-06T10:23:47.621Z,2.50
2023-02-06T10:24:46.314Z,2.10
2023-02-06T10:25:46.502Z,2.30
2023-02-06T10:26:46.365Z,2.00
2023-02-06T10:27:46.490Z,2.20
2023-02-06T10:28:46.323Z,2.60
2023-02-06T10:29:46.465Z,1.70
2023-02-06T10:30:46.374Z,2.60
2023-02-06T10:31:46.472Z,2.30
2023-02-06T10:32:46.527Z,2.10
2023-02-06T10:33:46.566Z,2.00
2023-02-06T10:34:46.405Z,3.30
2023-02-06T10:35:46.635Z,2.40
2023-02-06T10:36:46.366Z,1.90
2023-02-06T10:37:46.349Z,2.30
2023-02-06T10:38:46.464Z,2.20
2023-02-06T10:39:46.269Z,2.30
2023-02-06T10:40:46.329Z,2.70
2023-02-06T10:41:46.302Z,3.40
2023-02-06T10:42:46.377Z,2.10
2023-02-06T10:43:46.133Z,2.00
2023-02-06T10:44:51.290Z,2.20
2023-02-06T10:45:46.298Z,3.10
2023-02-06T10:46:46.484Z,2.50
2023-02-06T10:47:46.259Z,2.70
2023-02-06T10:48:46.271Z,2.30
2023-02-06T10:49:46.229Z,1.70
2023-02-06T10:50:46.219Z,2.70
2023-02-06T10:51:46.150Z,2.20
2023-02-06T10:52:46.135Z,2.60
2023-02-06T10:53:46.281Z,2.70
2023-02-06T10:54:46.129Z,2.70
2023-02-06T10:55:49.055Z,2.20
2023-02-06T10:56:46.023Z,2.30
2023-02-06T10:57:46.201Z,2.20
2023-02-06T10:58:46.113Z,2.20
2023-02-06T10:59:46.565Z,2.70
2023-02-06T11:00:46.049Z,2.10
2023-02-06T11:01:46.407Z,2.20
2023-02-06T11:02:48.971Z,2.40
2023-02-06T11:03:46.178Z,2.50
2023-02-06T11:04:45.996Z,2.30
2023-02-06T11:05:46.096Z,2.80
2023-02-06T11:06:45.995Z,2.50
2023-02-06T11:07:46.055Z,3.30
2023-02-06T11:08:46.230Z,2.40
2023-02-06T11:09:45.979Z,2.90
2023-02-06T11:10:46.025Z,1.90
2023-02-06T11:11:48.187Z,2.40
2023-02-06T11:12:46.014Z,2.40
2023-02-06T11:13:46.193Z,2.50
2023-02-06T11:14:46.044Z,2.30
2023-02-06T11:15:45.946Z,2.40
2023-02-06T11:16:46.007Z,2.10
2023-02-06T11:17:46.386Z,2.50
2023-02-06T11:18:46.075Z,2.40
2023-02-06T11:19:46.063Z,2.80
2023-02-06T11:20:46.116Z,3.00
2023-02-06T11:21:45.924Z,2.90
2023-02-06T11:22:52.704Z,2.70
2023-02-06T11:23:45.878Z,1.60
2023-02-06T11:24:45.784Z,2.50
2023-02-06T11:25:46.170Z,2.90
2023-02-06T11:26:45.864Z,2.60
2023-02-06T11:27:45.855Z,2.30
2023-02-06T11:28:45.795Z,2.70
2023-02-06T11:29:46.138Z,2.80
2023-02-06T11:30:45.882Z,2.50
2023-02-06T11:31:47.879Z,3.40
2023-02-06T11:32:59.028Z,2.40
2023-02-06T11:33:45.963Z,2.10
2023-02-06T11:34:45.801Z,1.80
2023-02-06T11:35:45.756Z,1.80
2023-02-06T11:36:45.865Z,3.00
2023-02-06T11:37:45.778Z,2.70
2023-02-06T11:38:45.858Z,2.60
2023-02-06T11:39:45.913Z,1.90
2023-02-06T11:40:45.834Z,2.40
2023-02-06T11:41:45.673Z,2.00
2023-02-06T11:42:45.682Z,2.20
2023-02-06T11:43:47.676Z,2.60
2023-02-06T11:44:45.754Z,2.70
2023-02-06T11:45:45.684Z,2.60
2023-02-06T11:46:45.654Z,2.60
2023-02-06T11:47:45.616Z,2.60
2023-02-06T11:48:45.687Z,2.30
2023-02-06T11:49:45.683Z,2.30
2023-02-06T11:50:45.833Z,2.30
2023-02-06T11:51:45.591Z,3.00
2023-02-06T11:52:46.869Z,3.70
2023-02-06T11:53:45.675Z,2.20
2023-02-06T11:54:45.564Z,4.60
2023-02-06T11:55:45.684Z,2.30
2023-02-06T11:56:45.724Z,2.90
2023-02-06T11:57:45.572Z,2.40
2023-02-06T11:58:45.477Z,3.20
2023-02-06T11:59:45.574Z,3.90
2023-02-06T12:00:45.543Z,2.10
2023-02-06T12:01:45.675Z,2.50
2023-02-06T12:02:45.464Z,2.50
2023-02-06T12:03:45.616Z,2.10
2023-02-06T12:04:45.434Z,2.50
2023-02-06T12:05:45.854Z,2.90
2023-02-06T12:06:45.484Z,2.70
2023-02-06T12:07:45.625Z,2.10
2023-02-06T12:08:45.556Z,2.50
2023-02-06T12:09:45.588Z,2.30
2023-02-06T12:10:45.496Z,2.50
2023-02-06T12:11:45.205Z,2.20
2023-02-06T12:12:45.544Z,2.20
2023-02-06T12:13:45.317Z,2.50
2023-02-06T12:14:45.397Z,2.20
2023-02-06T12:15:47.568Z,2.20
2023-02-06T12:16:45.539Z,2.30
2023-02-06T12:17:45.285Z,2.60
2023-02-06T12:18:45.415Z,3.00
2023-02-06T12:19:45.380Z,2.80
2023-02-06T12:20:45.574Z,2.00
2023-02-06T12:21:45.419Z,3.20
2023-02-06T12:22:45.527Z,2.70
2023-02-06T12:23:45.332Z,2.20
2023-02-06T12:24:45.335Z,2.50
2023-02-06T12:25:45.596Z,2.50
2023-02-06T12:26:45.145Z,2.40
2023-02-06T12:27:45.257Z,3.10
2023-02-06T12:28:45.176Z,2.90
2023-02-06T12:29:45.206Z,2.20
2023-02-06T12:30:45.200Z,2.60
2023-02-06T12:31:45.593Z,2.40
2023-02-06T12:32:45.102Z,2.00
2023-02-06T12:33:45.381Z,2.20
2023-02-06T12:34:45.040Z,2.10
2023-02-06T12:35:45.189Z,2.10
2023-02-06T12:36:45.190Z,1.50
2023-02-06T12:37:45.131Z,2.10
2023-02-06T12:38:45.194Z,2.10
2023-02-06T12:39:45.126Z,2.20
2023-02-06T12:40:45.200Z,2.00
2023-02-06T12:41:45.211Z,2.00
2023-02-06T12:42:45.067Z,2.30
2023-02-06T12:43:44.900Z,2.70
2023-02-06T12:44:45.342Z,2.50
2023-02-06T12:45:44.978Z,2.40
2023-02-06T12:46:45.752Z,2.10
2023-02-06T12:47:45.005Z,1.90
2023-02-06T12:48:45.198Z,3.50
2023-02-06T12:49:44.904Z,3.10
2023-02-06T12:50:45.068Z,1.60
2023-02-06T12:51:45.029Z,2.70
2023-02-06T12:52:45.062Z,2.30
2023-02-06T12:53:45.076Z,2.10
2023-02-06T12:54:45.136Z,3.40
2023-02-06T12:55:44.900Z,2.10
2023-02-06T12:56:45.075Z,1.80
2023-02-06T12:57:45.038Z,1.40
2023-02-06T12:58:44.861Z,2.20
2023-02-06T12:59:57.147Z,2.60
2023-02-06T13:00:44.730Z,1.90
2023-02-06T13:01:44.977Z,2.50
2023-02-06T13:02:44.806Z,2.20
2023-02-06T13:03:44.971Z,2.50
2023-02-06T13:04:45.032Z,2.00
2023-02-06T13:05:44.882Z,2.70
2023-02-06T13:06:44.105Z,2.10
2023-02-06T13:07:49.715Z,2.50
2023-02-06T13:08:44.722Z,1.60
2023-02-06T13:09:44.833Z,1.90
2023-02-06T13:10:44.736Z,2.10
2023-02-06T13:11:45.144Z,3.00
2023-02-06T13:12:45.222Z,3.20
2023-02-06T13:13:44.553Z,1.80
2023-02-06T13:14:44.915Z,2.00
2023-02-06T13:15:44.650Z,1.80
2023-02-06T13:16:45.062Z,1.90
2023-02-06T13:17:44.687Z,1.60
2023-02-06T13:18:44.806Z,2.80